sensor_id;sensor_type;location;lat;lon;timestamp;temperature;humidity
19781;DHT22;10050;55.492;13.506;2022-08-19T00:01:47;22.10;99.90
19781;DHT22;10050;55.492;13.506;2022-08-19T00:04:16;22.10;99.90
19781;DHT22;10050;55.492;13.506;2022-08-19T00:06:44;22.10;99.90
19781;DHT22;10050;55.492;13.506;2022-08-19T00:09:11;22.10;99.90
19781;DHT22;10050;55.492;13.506;2022-08-19T00:11:37;22.00;99.90
19781;DHT22;10050;55.492;13.506;2022-08-19T00:14:05;22.10;99.90
19781;DHT22;10050;55.492;13.506;2022-08-19T00:16:31;22.00;99.90
19781;DHT22;10050;55.492;13.506;2022-08-19T00:18:57;22.00;99.90
19781;DHT22;10050;55.492;13.506;2022-08-19T00:21:24;22.00;99.90
19781;DHT22;10050;55.492;13.506;2022-08-19T00:23:52;21.90;99.90
19781;DHT22;10050;55.492;13.506;2022-08-19T00:26:19;21.90;99.90
19781;DHT22;10050;55.492;13.506;2022-08-19T00:28:44;21.90;99.90
19781;DHT22;10050;55.492;13.506;2022-08-19T00:31:10;21.80;99.90
19781;DHT22;10050;55.492;13.506;2022-08-19T00:33:36;21.80;99.90
19781;DHT22;10050;55.492;13.506;2022-08-19T00:36:04;21.90;99.90
19781;DHT22;10050;55.492;13.506;2022-08-19T00:38:32;21.80;99.90
19781;DHT22;10050;55.492;13.506;2022-08-19T00:40:58;21.80;99.90
19781;DHT22;10050;55.492;13.506;2022-08-19T00:43:26;21.80;99.90
19781;DHT22;10050;55.492;13.506;2022-08-19T00:45:52;21.80;99.90
19781;DHT22;10050;55.492;13.506;2022-08-19T00:48:19;21.80;99.90
19781;DHT22;10050;55.492;13.506;2022-08-19T00:50:48;21.80;99.90
19781;DHT22;10050;55.492;13.506;2022-08-19T00:53:16;21.80;99.90
19781;DHT22;10050;55.492;13.506;2022-08-19T00:55:48;21.70;99.90
19781;DHT22;10050;55.492;13.506;2022-08-19T00:58:17;21.70;99.90
19781;DHT22;10050;55.492;13.506;2022-08-19T01:00:45;21.70;99.90
19781;DHT22;10050;55.492;13.506;2022-08-19T01:03:17;21.70;99.90
19781;DHT22;10050;55.492;13.506;2022-08-19T01:05:44;21.60;99.90
19781;DHT22;10050;55.492;13.506;2022-08-19T01:08:11;21.60;99.90
19781;DHT22;10050;55.492;13.506;2022-08-19T01:10:47;21.50;99.90
19781;DHT22;10050;55.492;13.506;2022-08-19T01:13:19;21.50;99.90
19781;DHT22;10050;55.492;13.506;2022-08-19T01:15:50;21.50;99.90
19781;DHT22;10050;55.492;13.506;2022-08-19T01:18:18;21.50;99.90
19781;DHT22;10050;55.492;13.506;2022-08-19T01:20:44;21.50;99.90
19781;DHT22;10050;55.492;13.506;2022-08-19T01:23:12;21.40;99.90
19781;DHT22;10050;55.492;13.506;2022-08-19T01:25:48;21.40;99.90
19781;DHT22;10050;55.492;13.506;2022-08-19T01:28:24;21.40;99.90
19781;DHT22;10050;55.492;13.506;2022-08-19T01:30:54;21.40;99.90
19781;DHT22;10050;55.492;13.506;2022-08-19T01:33:20;21.30;99.90
19781;DHT22;10050;55.492;13.506;2022-08-19T01:35:46;21.30;99.90
19781;DHT22;10050;55.492;13.506;2022-08-19T01:38:26;21.30;99.90
19781;DHT22;10050;55.492;13.506;2022-08-19T01:40:52;21.30;99.90
19781;DHT22;10050;55.492;13.506;2022-08-19T01:43:18;21.20;99.90
19781;DHT22;10050;55.492;13.506;2022-08-19T01:45:45;21.20;99.90
19781;DHT22;10050;55.492;13.506;2022-08-19T01:48:11;21.30;99.90
19781;DHT22;10050;55.492;13.506;2022-08-19T01:50:37;21.20;99.90
19781;DHT22;10050;55.492;13.506;2022-08-19T01:53:06;21.30;99.90
19781;DHT22;10050;55.492;13.506;2022-08-19T01:55:34;21.20;99.90
19781;DHT22;10050;55.492;13.506;2022-08-19T01:58:02;21.20;99.90
19781;DHT22;10050;55.492;13.506;2022-08-19T02:00:30;21.20;99.90
19781;DHT22;10050;55.492;13.506;2022-08-19T02:02:56;21.20;99.90
19781;DHT22;10050;55.492;13.506;2022-08-19T02:05:23;21.20;99.90
19781;DHT22;10050;55.492;13.506;2022-08-19T02:07:49;21.10;99.90
19781;DHT22;10050;55.492;13.506;2022-08-19T02:10:19;21.10;99.90
19781;DHT22;10050;55.492;13.506;2022-08-19T02:12:45;21.20;99.90
19781;DHT22;10050;55.492;13.506;2022-08-19T02:15:12;21.10;99.90
19781;DHT22;10050;55.492;13.506;2022-08-19T02:17:38;21.10;99.90
19781;DHT22;10050;55.492;13.506;2022-08-19T02:20:05;21.10;99.90
19781;DHT22;10050;55.492;13.506;2022-08-19T02:22:32;21.00;99.90
19781;DHT22;10050;55.492;13.506;2022-08-19T02:24:57;21.00;99.90
19781;DHT22;10050;55.492;13.506;2022-08-19T02:27:23;21.00;99.90
19781;DHT22;10050;55.492;13.506;2022-08-19T02:29:50;21.00;99.90
19781;DHT22;10050;55.492;13.506;2022-08-19T02:32:17;21.00;99.90
19781;DHT22;10050;55.492;13.506;2022-08-19T02:34:45;21.00;99.90
19781;DHT22;10050;55.492;13.506;2022-08-19T02:37:10;20.90;99.90
19781;DHT22;10050;55.492;13.506;2022-08-19T02:39:56;20.90;99.90
19781;DHT22;10050;55.492;13.506;2022-08-19T02:42:22;20.90;99.90
19781;DHT22;10050;55.492;13.506;2022-08-19T02:44:48;20.80;99.90
19781;DHT22;10050;55.492;13.506;2022-08-19T02:47:13;20.80;99.90
19781;DHT22;10050;55.492;13.506;2022-08-19T02:49:40;20.80;99.90
19781;DHT22;10050;55.492;13.506;2022-08-19T02:52:07;20.80;99.90
19781;DHT22;10050;55.492;13.506;2022-08-19T02:54:33;20.80;99.90
19781;DHT22;10050;55.492;13.506;2022-08-19T02:56:59;20.80;99.90
19781;DHT22;10050;55.492;13.506;2022-08-19T02:59:25;20.70;99.90
19781;DHT22;10050;55.492;13.506;2022-08-19T03:01:51;20.70;99.90
19781;DHT22;10050;55.492;13.506;2022-08-19T03:04:16;20.70;99.90
19781;DHT22;10050;55.492;13.506;2022-08-19T03:06:46;20.70;99.90
19781;DHT22;10050;55.492;13.506;2022-08-19T03:09:12;20.70;99.90
19781;DHT22;10050;55.492;13.506;2022-08-19T03:11:39;20.70;99.90
19781;DHT22;10050;55.492;13.506;2022-08-19T03:14:06;20.70;99.90
19781;DHT22;10050;55.492;13.506;2022-08-19T03:16:34;20.70;99.90
19781;DHT22;10050;55.492;13.506;2022-08-19T03:19:01;20.70;99.90
19781;DHT22;10050;55.492;13.506;2022-08-19T03:21:30;20.60;99.90
19781;DHT22;10050;55.492;13.506;2022-08-19T03:24:05;20.60;99.90
19781;DHT22;10050;55.492;13.506;2022-08-19T03:26:31;20.60;99.90
19781;DHT22;10050;55.492;13.506;2022-08-19T03:28:57;20.60;99.90
19781;DHT22;10050;55.492;13.506;2022-08-19T03:31:25;20.60;99.90
19781;DHT22;10050;55.492;13.506;2022-08-19T03:33:51;20.50;99.90
19781;DHT22;10050;55.492;13.506;2022-08-19T03:36:22;20.50;99.90
19781;DHT22;10050;55.492;13.506;2022-08-19T03:38:54;20.50;99.90
19781;DHT22;10050;55.492;13.506;2022-08-19T03:41:24;20.50;99.90
19781;DHT22;10050;55.492;13.506;2022-08-19T03:43:51;20.50;99.90
19781;DHT22;10050;55.492;13.506;2022-08-19T03:46:22;20.50;99.90
19781;DHT22;10050;55.492;13.506;2022-08-19T03:48:49;20.50;99.90
19781;DHT22;10050;55.492;13.506;2022-08-19T03:51:30;20.50;99.90
19781;DHT22;10050;55.492;13.506;2022-08-19T03:53:58;20.50;99.90
19781;DHT22;10050;55.492;13.506;2022-08-19T03:56:24;20.50;99.90
19781;DHT22;10050;55.492;13.506;2022-08-19T03:58:55;20.50;99.90
19781;DHT22;10050;55.492;13.506;2022-08-19T04:01:22;20.40;99.90
19781;DHT22;10050;55.492;13.506;2022-08-19T04:03:49;20.40;99.90
19781;DHT22;10050;55.492;13.506;2022-08-19T04:06:17;20.40;99.90
19781;DHT22;10050;55.492;13.506;2022-08-19T04:08:45;20.50;99.90
19781;DHT22;10050;55.492;13.506;2022-08-19T04:11:17;20.40;99.90
19781;DHT22;10050;55.492;13.506;2022-08-19T04:13:43;20.40;99.90
19781;DHT22;10050;55.492;13.506;2022-08-19T04:16:10;20.40;99.90
19781;DHT22;10050;55.492;13.506;2022-08-19T04:18:37;20.40;99.90
19781;DHT22;10050;55.492;13.506;2022-08-19T04:21:05;20.40;99.90
19781;DHT22;10050;55.492;13.506;2022-08-19T04:23:31;20.50;99.90
19781;DHT22;10050;55.492;13.506;2022-08-19T04:25:58;20.40;99.90
19781;DHT22;10050;55.492;13.506;2022-08-19T04:28:24;20.50;99.90
19781;DHT22;10050;55.492;13.506;2022-08-19T04:30:52;20.50;99.90
19781;DHT22;10050;55.492;13.506;2022-08-19T04:33:20;20.50;99.90
19781;DHT22;10050;55.492;13.506;2022-08-19T04:35:48;20.60;99.90
19781;DHT22;10050;55.492;13.506;2022-08-19T04:38:16;20.50;99.90
19781;DHT22;10050;55.492;13.506;2022-08-19T04:40:45;20.60;99.90
19781;DHT22;10050;55.492;13.506;2022-08-19T04:43:29;20.60;99.90
19781;DHT22;10050;55.492;13.506;2022-08-19T04:45:55;20.60;99.90
19781;DHT22;10050;55.492;13.506;2022-08-19T04:48:21;20.60;99.90
19781;DHT22;10050;55.492;13.506;2022-08-19T04:50:55;20.60;99.90
19781;DHT22;10050;55.492;13.506;2022-08-19T04:53:29;20.60;99.90
19781;DHT22;10050;55.492;13.506;2022-08-19T04:55:56;20.60;99.90
19781;DHT22;10050;55.492;13.506;2022-08-19T04:58:23;20.60;99.90
19781;DHT22;10050;55.492;13.506;2022-08-19T05:00:49;20.70;99.90
19781;DHT22;10050;55.492;13.506;2022-08-19T05:03:15;20.70;99.90
19781;DHT22;10050;55.492;13.506;2022-08-19T05:05:43;20.70;99.90
19781;DHT22;10050;55.492;13.506;2022-08-19T05:08:10;20.70;99.90
19781;DHT22;10050;55.492;13.506;2022-08-19T05:10:39;20.70;99.90
19781;DHT22;10050;55.492;13.506;2022-08-19T05:13:05;20.70;99.90
19781;DHT22;10050;55.492;13.506;2022-08-19T05:15:31;20.70;99.90
19781;DHT22;10050;55.492;13.506;2022-08-19T05:17:57;20.70;99.90
19781;DHT22;10050;55.492;13.506;2022-08-19T05:20:41;20.70;99.90
19781;DHT22;10050;55.492;13.506;2022-08-19T05:23:26;20.70;99.90
19781;DHT22;10050;55.492;13.506;2022-08-19T05:25:51;20.70;99.90
19781;DHT22;10050;55.492;13.506;2022-08-19T05:28:19;20.70;99.90
19781;DHT22;10050;55.492;13.506;2022-08-19T05:30:44;20.70;99.90
19781;DHT22;10050;55.492;13.506;2022-08-19T05:33:11;20.70;99.90
19781;DHT22;10050;55.492;13.506;2022-08-19T05:35:38;20.80;99.90
19781;DHT22;10050;55.492;13.506;2022-08-19T05:38:05;20.80;99.90
19781;DHT22;10050;55.492;13.506;2022-08-19T05:40:35;20.90;99.90
19781;DHT22;10050;55.492;13.506;2022-08-19T05:43:04;20.90;99.90
19781;DHT22;10050;55.492;13.506;2022-08-19T05:45:30;21.00;99.90
19781;DHT22;10050;55.492;13.506;2022-08-19T05:47:56;21.00;99.90
19781;DHT22;10050;55.492;13.506;2022-08-19T05:50:22;21.10;99.90
19781;DHT22;10050;55.492;13.506;2022-08-19T05:52:48;21.10;99.90
19781;DHT22;10050;55.492;13.506;2022-08-19T05:55:14;21.20;99.90
19781;DHT22;10050;55.492;13.506;2022-08-19T05:57:39;21.20;99.90
19781;DHT22;10050;55.492;13.506;2022-08-19T06:00:06;21.30;99.90
19781;DHT22;10050;55.492;13.506;2022-08-19T06:02:36;21.30;99.90
19781;DHT22;10050;55.492;13.506;2022-08-19T06:05:04;21.40;99.90
19781;DHT22;10050;55.492;13.506;2022-08-19T06:07:32;21.40;99.90
19781;DHT22;10050;55.492;13.506;2022-08-19T06:09:58;21.50;99.90
19781;DHT22;10050;55.492;13.506;2022-08-19T06:12:24;21.60;99.90
19781;DHT22;10050;55.492;13.506;2022-08-19T06:14:59;21.60;99.90
19781;DHT22;10050;55.492;13.506;2022-08-19T06:17:24;21.70;99.90
19781;DHT22;10050;55.492;13.506;2022-08-19T06:19:51;21.80;99.90
19781;DHT22;10050;55.492;13.506;2022-08-19T06:22:17;21.80;99.90
19781;DHT22;10050;55.492;13.506;2022-08-19T06:24:42;21.90;99.90
19781;DHT22;10050;55.492;13.506;2022-08-19T06:27:09;22.00;99.90
19781;DHT22;10050;55.492;13.506;2022-08-19T06:29:35;22.10;99.90
19781;DHT22;10050;55.492;13.506;2022-08-19T06:32:03;22.10;99.90
19781;DHT22;10050;55.492;13.506;2022-08-19T06:34:31;22.10;99.90
19781;DHT22;10050;55.492;13.506;2022-08-19T06:36:59;22.20;99.90
19781;DHT22;10050;55.492;13.506;2022-08-19T06:39:29;22.20;99.90
19781;DHT22;10050;55.492;13.506;2022-08-19T06:41:58;22.20;99.90
19781;DHT22;10050;55.492;13.506;2022-08-19T06:44:26;22.20;99.90
19781;DHT22;10050;55.492;13.506;2022-08-19T06:46:54;22.20;99.90
19781;DHT22;10050;55.492;13.506;2022-08-19T06:49:21;22.10;99.90
19781;DHT22;10050;55.492;13.506;2022-08-19T06:51:48;22.10;99.90
19781;DHT22;10050;55.492;13.506;2022-08-19T06:54:15;22.10;99.90
19781;DHT22;10050;55.492;13.506;2022-08-19T06:56:42;22.00;99.90
19781;DHT22;10050;55.492;13.506;2022-08-19T06:59:13;22.10;99.90
19781;DHT22;10050;55.492;13.506;2022-08-19T07:01:44;22.20;99.90
19781;DHT22;10050;55.492;13.506;2022-08-19T07:04:13;22.20;99.90
19781;DHT22;10050;55.492;13.506;2022-08-19T07:06:39;22.40;99.90
19781;DHT22;10050;55.492;13.506;2022-08-19T07:09:08;22.40;99.90
19781;DHT22;10050;55.492;13.506;2022-08-19T07:11:34;22.40;99.90
19781;DHT22;10050;55.492;13.506;2022-08-19T07:14:01;22.50;99.90
19781;DHT22;10050;55.492;13.506;2022-08-19T07:16:28;22.70;99.90
19781;DHT22;10050;55.492;13.506;2022-08-19T07:18:54;22.80;99.90
19781;DHT22;10050;55.492;13.506;2022-08-19T07:21:23;22.80;99.90
19781;DHT22;10050;55.492;13.506;2022-08-19T07:23:50;22.90;99.90
19781;DHT22;10050;55.492;13.506;2022-08-19T07:26:19;23.10;99.90
19781;DHT22;10050;55.492;13.506;2022-08-19T07:28:46;23.20;99.90
19781;DHT22;10050;55.492;13.506;2022-08-19T07:31:14;23.40;99.90
19781;DHT22;10050;55.492;13.506;2022-08-19T07:33:41;23.60;99.90
19781;DHT22;10050;55.492;13.506;2022-08-19T07:36:09;23.70;99.90
19781;DHT22;10050;55.492;13.506;2022-08-19T07:38:40;24.00;99.90
19781;DHT22;10050;55.492;13.506;2022-08-19T07:41:07;24.30;99.90
19781;DHT22;10050;55.492;13.506;2022-08-19T07:43:33;24.50;99.90
19781;DHT22;10050;55.492;13.506;2022-08-19T07:45:58;24.60;99.90
19781;DHT22;10050;55.492;13.506;2022-08-19T07:48:25;24.60;99.90
19781;DHT22;10050;55.492;13.506;2022-08-19T07:50:53;24.60;99.90
19781;DHT22;10050;55.492;13.506;2022-08-19T07:53:21;24.70;99.90
19781;DHT22;10050;55.492;13.506;2022-08-19T07:55:46;24.70;99.90
19781;DHT22;10050;55.492;13.506;2022-08-19T07:58:15;24.80;99.90
19781;DHT22;10050;55.492;13.506;2022-08-19T08:00:41;24.80;99.90
19781;DHT22;10050;55.492;13.506;2022-08-19T08:03:07;24.70;99.90
19781;DHT22;10050;55.492;13.506;2022-08-19T08:05:34;24.70;99.90
19781;DHT22;10050;55.492;13.506;2022-08-19T08:08:19;24.80;99.90
19781;DHT22;10050;55.492;13.506;2022-08-19T08:11:08;24.80;99.90
19781;DHT22;10050;55.492;13.506;2022-08-19T08:13:34;24.80;99.90
19781;DHT22;10050;55.492;13.506;2022-08-19T08:16:03;25.10;99.90
19781;DHT22;10050;55.492;13.506;2022-08-19T08:18:28;25.30;99.90
19781;DHT22;10050;55.492;13.506;2022-08-19T08:20:55;25.30;99.90
19781;DHT22;10050;55.492;13.506;2022-08-19T08:23:20;25.20;99.90
19781;DHT22;10050;55.492;13.506;2022-08-19T08:25:56;25.10;99.90
19781;DHT22;10050;55.492;13.506;2022-08-19T08:28:22;25.00;99.90
19781;DHT22;10050;55.492;13.506;2022-08-19T08:30:49;24.90;99.90
19781;DHT22;10050;55.492;13.506;2022-08-19T08:33:20;24.80;99.90
19781;DHT22;10050;55.492;13.506;2022-08-19T08:35:46;24.70;99.90
19781;DHT22;10050;55.492;13.506;2022-08-19T08:38:13;24.60;99.90
19781;DHT22;10050;55.492;13.506;2022-08-19T08:43:47;24.40;99.90
19781;DHT22;10050;55.492;13.506;2022-08-19T08:46:16;24.40;99.90
19781;DHT22;10050;55.492;13.506;2022-08-19T08:48:58;24.50;99.90
19781;DHT22;10050;55.492;13.506;2022-08-19T08:51:37;24.50;99.90
19781;DHT22;10050;55.492;13.506;2022-08-19T08:54:06;24.50;99.90
19781;DHT22;10050;55.492;13.506;2022-08-19T08:56:33;24.40;99.90
19781;DHT22;10050;55.492;13.506;2022-08-19T08:59:10;24.50;99.90
19781;DHT22;10050;55.492;13.506;2022-08-19T09:01:38;24.40;99.90
19781;DHT22;10050;55.492;13.506;2022-08-19T09:04:07;24.40;99.90
19781;DHT22;10050;55.492;13.506;2022-08-19T09:09:36;24.10;99.90
19781;DHT22;10050;55.492;13.506;2022-08-19T09:12:19;23.90;99.90
19781;DHT22;10050;55.492;13.506;2022-08-19T09:14:48;23.80;99.90
19781;DHT22;10050;55.492;13.506;2022-08-19T09:17:15;23.80;99.90
19781;DHT22;10050;55.492;13.506;2022-08-19T09:19:56;23.70;99.90
19781;DHT22;10050;55.492;13.506;2022-08-19T09:22:22;23.80;99.90
19781;DHT22;10050;55.492;13.506;2022-08-19T09:24:49;23.80;99.90
19781;DHT22;10050;55.492;13.506;2022-08-19T09:27:18;23.80;99.90
19781;DHT22;10050;55.492;13.506;2022-08-19T09:29:44;23.70;99.90
19781;DHT22;10050;55.492;13.506;2022-08-19T09:32:09;23.70;99.90
19781;DHT22;10050;55.492;13.506;2022-08-19T09:34:35;23.60;99.90
19781;DHT22;10050;55.492;13.506;2022-08-19T09:37:01;23.40;99.90
19781;DHT22;10050;55.492;13.506;2022-08-19T09:39:28;23.30;99.90
19781;DHT22;10050;55.492;13.506;2022-08-19T09:41:53;23.30;99.90
19781;DHT22;10050;55.492;13.506;2022-08-19T09:44:19;23.20;99.90
19781;DHT22;10050;55.492;13.506;2022-08-19T09:46:47;23.00;99.90
19781;DHT22;10050;55.492;13.506;2022-08-19T09:49:14;22.90;99.90
19781;DHT22;10050;55.492;13.506;2022-08-19T09:51:40;22.70;99.90
19781;DHT22;10050;55.492;13.506;2022-08-19T09:54:05;22.70;99.90
19781;DHT22;10050;55.492;13.506;2022-08-19T09:56:32;22.60;99.90
19781;DHT22;10050;55.492;13.506;2022-08-19T09:58:59;22.40;99.90
19781;DHT22;10050;55.492;13.506;2022-08-19T10:01:27;22.40;99.90
19781;DHT22;10050;55.492;13.506;2022-08-19T10:03:54;22.50;99.90
19781;DHT22;10050;55.492;13.506;2022-08-19T10:06:23;22.50;99.90
19781;DHT22;10050;55.492;13.506;2022-08-19T10:08:49;22.60;99.90
19781;DHT22;10050;55.492;13.506;2022-08-19T10:11:15;22.60;99.90
19781;DHT22;10050;55.492;13.506;2022-08-19T10:13:43;22.70;99.90
19781;DHT22;10050;55.492;13.506;2022-08-19T10:16:13;22.80;99.90
19781;DHT22;10050;55.492;13.506;2022-08-19T10:18:39;22.80;99.90
19781;DHT22;10050;55.492;13.506;2022-08-19T10:21:12;22.90;99.90
19781;DHT22;10050;55.492;13.506;2022-08-19T10:23:39;23.00;99.90
19781;DHT22;10050;55.492;13.506;2022-08-19T10:26:06;23.10;99.90
19781;DHT22;10050;55.492;13.506;2022-08-19T10:28:36;23.10;99.90
19781;DHT22;10050;55.492;13.506;2022-08-19T10:31:09;23.20;99.90
19781;DHT22;10050;55.492;13.506;2022-08-19T10:33:36;23.20;99.90
19781;DHT22;10050;55.492;13.506;2022-08-19T10:36:09;23.20;99.90
19781;DHT22;10050;55.492;13.506;2022-08-19T10:38:35;23.30;99.90
19781;DHT22;10050;55.492;13.506;2022-08-19T10:41:16;23.20;99.90
19781;DHT22;10050;55.492;13.506;2022-08-19T10:43:42;23.20;99.90
19781;DHT22;10050;55.492;13.506;2022-08-19T10:46:12;23.20;99.90
19781;DHT22;10050;55.492;13.506;2022-08-19T10:48:39;23.20;99.90
19781;DHT22;10050;55.492;13.506;2022-08-19T10:51:05;23.20;99.90
19781;DHT22;10050;55.492;13.506;2022-08-19T10:53:49;23.30;99.90
19781;DHT22;10050;55.492;13.506;2022-08-19T10:56:15;23.30;99.90
19781;DHT22;10050;55.492;13.506;2022-08-19T10:59:00;23.20;99.90
19781;DHT22;10050;55.492;13.506;2022-08-19T11:01:27;23.20;99.90
19781;DHT22;10050;55.492;13.506;2022-08-19T11:03:52;23.20;99.90
19781;DHT22;10050;55.492;13.506;2022-08-19T11:06:19;23.20;99.90
19781;DHT22;10050;55.492;13.506;2022-08-19T11:08:45;23.20;99.90
19781;DHT22;10050;55.492;13.506;2022-08-19T11:11:12;23.20;99.90
19781;DHT22;10050;55.492;13.506;2022-08-19T11:13:40;23.20;99.90
19781;DHT22;10050;55.492;13.506;2022-08-19T11:16:08;23.20;99.90
19781;DHT22;10050;55.492;13.506;2022-08-19T11:18:39;23.20;99.90
19781;DHT22;10050;55.492;13.506;2022-08-19T11:21:12;23.10;99.90
19781;DHT22;10050;55.492;13.506;2022-08-19T11:23:38;22.90;99.90
19781;DHT22;10050;55.492;13.506;2022-08-19T11:26:04;22.90;99.90
19781;DHT22;10050;55.492;13.506;2022-08-19T11:28:29;22.90;99.90
19781;DHT22;10050;55.492;13.506;2022-08-19T11:30:55;23.00;99.90
19781;DHT22;10050;55.492;13.506;2022-08-19T11:33:20;23.00;99.90
19781;DHT22;10050;55.492;13.506;2022-08-19T11:35:46;23.10;99.90
19781;DHT22;10050;55.492;13.506;2022-08-19T11:38:12;23.10;99.90
19781;DHT22;10050;55.492;13.506;2022-08-19T11:40:38;23.10;99.90
19781;DHT22;10050;55.492;13.506;2022-08-19T11:43:05;23.20;99.90
19781;DHT22;10050;55.492;13.506;2022-08-19T11:45:31;23.30;99.90
19781;DHT22;10050;55.492;13.506;2022-08-19T11:47:57;23.30;99.90
19781;DHT22;10050;55.492;13.506;2022-08-19T11:50:23;23.40;99.90
19781;DHT22;10050;55.492;13.506;2022-08-19T11:52:49;23.50;99.90
19781;DHT22;10050;55.492;13.506;2022-08-19T11:55:15;23.50;99.90
19781;DHT22;10050;55.492;13.506;2022-08-19T11:57:41;23.50;99.90
19781;DHT22;10050;55.492;13.506;2022-08-19T12:00:09;23.60;99.90
19781;DHT22;10050;55.492;13.506;2022-08-19T12:02:37;23.60;99.90
19781;DHT22;10050;55.492;13.506;2022-08-19T12:05:02;23.60;99.90
19781;DHT22;10050;55.492;13.506;2022-08-19T12:07:28;23.60;99.90
19781;DHT22;10050;55.492;13.506;2022-08-19T12:09:59;23.60;99.90
19781;DHT22;10050;55.492;13.506;2022-08-19T12:12:25;23.60;99.90
19781;DHT22;10050;55.492;13.506;2022-08-19T12:14:51;23.60;99.90
19781;DHT22;10050;55.492;13.506;2022-08-19T12:17:23;23.60;99.90
19781;DHT22;10050;55.492;13.506;2022-08-19T12:19:49;23.70;99.90
19781;DHT22;10050;55.492;13.506;2022-08-19T12:22:14;23.60;99.90
19781;DHT22;10050;55.492;13.506;2022-08-19T12:24:40;23.70;99.90
19781;DHT22;10050;55.492;13.506;2022-08-19T12:27:06;23.70;99.90
19781;DHT22;10050;55.492;13.506;2022-08-19T12:29:31;23.80;99.90
19781;DHT22;10050;55.492;13.506;2022-08-19T12:31:58;23.90;99.90
19781;DHT22;10050;55.492;13.506;2022-08-19T12:34:31;24.10;99.90
19781;DHT22;10050;55.492;13.506;2022-08-19T12:37:00;24.20;99.90
19781;DHT22;10050;55.492;13.506;2022-08-19T12:39:26;24.20;99.90
19781;DHT22;10050;55.492;13.506;2022-08-19T12:41:52;24.10;99.90
19781;DHT22;10050;55.492;13.506;2022-08-19T12:44:18;24.10;99.90
19781;DHT22;10050;55.492;13.506;2022-08-19T12:46:44;24.10;99.90
19781;DHT22;10050;55.492;13.506;2022-08-19T12:49:10;24.20;99.90
19781;DHT22;10050;55.492;13.506;2022-08-19T12:51:35;24.30;99.90
19781;DHT22;10050;55.492;13.506;2022-08-19T12:54:02;24.40;99.90
19781;DHT22;10050;55.492;13.506;2022-08-19T12:56:29;24.50;99.90
19781;DHT22;10050;55.492;13.506;2022-08-19T12:58:54;24.80;99.90
19781;DHT22;10050;55.492;13.506;2022-08-19T13:01:21;25.00;99.90
19781;DHT22;10050;55.492;13.506;2022-08-19T13:03:47;25.20;99.90
19781;DHT22;10050;55.492;13.506;2022-08-19T13:06:12;25.40;99.90
19781;DHT22;10050;55.492;13.506;2022-08-19T13:08:39;25.60;99.90
19781;DHT22;10050;55.492;13.506;2022-08-19T13:11:16;25.50;99.90
19781;DHT22;10050;55.492;13.506;2022-08-19T13:13:44;25.40;99.90
19781;DHT22;10050;55.492;13.506;2022-08-19T13:16:10;25.30;99.90
19781;DHT22;10050;55.492;13.506;2022-08-19T13:18:37;25.30;99.90
19781;DHT22;10050;55.492;13.506;2022-08-19T13:21:04;25.30;99.90
19781;DHT22;10050;55.492;13.506;2022-08-19T13:23:31;25.30;99.90
19781;DHT22;10050;55.492;13.506;2022-08-19T13:26:02;25.40;99.90
19781;DHT22;10050;55.492;13.506;2022-08-19T13:28:28;25.40;99.90
19781;DHT22;10050;55.492;13.506;2022-08-19T13:31:22;25.50;99.90
19781;DHT22;10050;55.492;13.506;2022-08-19T13:34:07;25.40;99.90
19781;DHT22;10050;55.492;13.506;2022-08-19T13:36:35;25.40;99.90
19781;DHT22;10050;55.492;13.506;2022-08-19T13:39:01;25.40;99.90
19781;DHT22;10050;55.492;13.506;2022-08-19T13:41:27;25.30;99.90
19781;DHT22;10050;55.492;13.506;2022-08-19T13:43:53;25.40;99.90
19781;DHT22;10050;55.492;13.506;2022-08-19T13:46:20;25.30;99.90
19781;DHT22;10050;55.492;13.506;2022-08-19T13:48:47;25.40;99.90
19781;DHT22;10050;55.492;13.506;2022-08-19T13:51:14;25.50;99.90
19781;DHT22;10050;55.492;13.506;2022-08-19T13:53:42;25.50;99.90
19781;DHT22;10050;55.492;13.506;2022-08-19T13:56:11;25.50;99.90
19781;DHT22;10050;55.492;13.506;2022-08-19T13:58:38;25.50;99.90
19781;DHT22;10050;55.492;13.506;2022-08-19T14:01:04;25.40;99.90
19781;DHT22;10050;55.492;13.506;2022-08-19T14:03:31;25.40;99.90
19781;DHT22;10050;55.492;13.506;2022-08-19T14:05:57;25.40;99.90
19781;DHT22;10050;55.492;13.506;2022-08-19T14:08:23;25.30;99.90
19781;DHT22;10050;55.492;13.506;2022-08-19T14:10:49;25.20;99.90
19781;DHT22;10050;55.492;13.506;2022-08-19T14:13:18;25.10;99.90
19781;DHT22;10050;55.492;13.506;2022-08-19T14:15:44;25.00;99.90
19781;DHT22;10050;55.492;13.506;2022-08-19T14:18:10;25.00;99.90
19781;DHT22;10050;55.492;13.506;2022-08-19T14:20:36;24.80;99.90
19781;DHT22;10050;55.492;13.506;2022-08-19T14:23:02;24.70;99.90
19781;DHT22;10050;55.492;13.506;2022-08-19T14:25:29;24.60;99.90
19781;DHT22;10050;55.492;13.506;2022-08-19T14:27:56;24.60;99.90
19781;DHT22;10050;55.492;13.506;2022-08-19T14:30:27;24.50;99.90
19781;DHT22;10050;55.492;13.506;2022-08-19T14:32:55;24.50;99.90
19781;DHT22;10050;55.492;13.506;2022-08-19T14:35:21;24.50;99.90
19781;DHT22;10050;55.492;13.506;2022-08-19T14:37:48;24.50;99.90
19781;DHT22;10050;55.492;13.506;2022-08-19T14:40:17;24.50;99.90
19781;DHT22;10050;55.492;13.506;2022-08-19T14:42:46;24.50;99.90
19781;DHT22;10050;55.492;13.506;2022-08-19T14:45:13;24.50;99.90
19781;DHT22;10050;55.492;13.506;2022-08-19T14:47:39;24.50;99.90
19781;DHT22;10050;55.492;13.506;2022-08-19T14:50:09;24.50;99.90
19781;DHT22;10050;55.492;13.506;2022-08-19T14:52:35;24.60;99.90
19781;DHT22;10050;55.492;13.506;2022-08-19T14:55:02;24.60;99.90
19781;DHT22;10050;55.492;13.506;2022-08-19T14:57:27;24.70;99.90
19781;DHT22;10050;55.492;13.506;2022-08-19T14:59:53;24.70;99.90
19781;DHT22;10050;55.492;13.506;2022-08-19T15:02:19;24.80;99.90
19781;DHT22;10050;55.492;13.506;2022-08-19T15:04:45;24.80;99.90
19781;DHT22;10050;55.492;13.506;2022-08-19T15:07:11;24.80;99.90
19781;DHT22;10050;55.492;13.506;2022-08-19T15:09:37;24.80;99.90
19781;DHT22;10050;55.492;13.506;2022-08-19T15:12:03;24.80;99.90
19781;DHT22;10050;55.492;13.506;2022-08-19T15:14:29;24.70;99.90
19781;DHT22;10050;55.492;13.506;2022-08-19T15:17:01;24.70;99.90
19781;DHT22;10050;55.492;13.506;2022-08-19T15:19:28;24.60;99.90
19781;DHT22;10050;55.492;13.506;2022-08-19T15:21:54;24.70;99.90
19781;DHT22;10050;55.492;13.506;2022-08-19T15:24:20;24.70;99.90
19781;DHT22;10050;55.492;13.506;2022-08-19T15:26:46;24.70;99.90